Nearby METAR Reports


Data Updates Approximately Every Four (4) Hours

METAR is the international standard code format for hourly surface weather observations which is analogous to the SA coding currently used in the US. The acronym roughly translates from French as Aviation Routine Weather Report. SPECI is merely the code name given to METAR formatted products which are issued on a special non-routine basis as dictated by changing meteorological conditions. The SPECI acronym roughly translates as Aviation Selected Special Weather Report.
Source: NOAA-National Centers For Environmental Information.

KSLH - Cheboygan, Michigan, USA
Distance from Lake Huron Weather: W 9mi
Updated: 05/19/2022 8:55am
Mostly cloudy
Mostly cloudy
 Wind from WSW
Wind: WSW 12 mph , 19 km/h
Temperature: 55°F , 13°C
Dew Point: 48°F , 9°C
Humidity: 77%
Barometer: 29.60 inHg , 1002.4 hPa
Clouds: Mostly cloudy
Visibility: 10 miles , 16 km
Cloud details: Mostly cloudy 8500 ft
2022/05/19 12:55 KSLH 191255Z AUTO 25010KT 10SM BKN085 13/09 A2960 RMK AO2
KMCD - Mackinac Island, Michigan, USA
Distance from Lake Huron Weather: NW 19mi
Updated: 05/19/2022 8:55am
Overcast
Overcast
 Wind from WSW
Wind: WSW 12 mph , 19 km/h, Gust: 20 mph , 31 km/h
Temperature: 46°F , 8°C
Wind Chill: 40°F , 4°C
Dew Point: 46°F , 8°C
Humidity: 100%
Barometer: 29.61 inHg , 1002.7 hPa
Clouds: Overcast
Visibility: 7 miles , 11 km
Cloud details: Overcast 700 ft
2022/05/19 12:55 KMCD 191255Z AUTO 24010G17KT 7SM OVC007 08/08 A2961 RMK AO2 T00820082
 
KDRM - Drummond Is, Michigan, USA
Distance from Lake Huron Weather: NE 36mi
Updated: 05/19/2022 8:55am
Overcast
Overcast
 Wind from W
Wind: W 6 mph , 9 km/h
Temperature: 52°F , 11°C
Dew Point: 48°F , 9°C
Humidity: 88%
Barometer: 29.61 inHg , 1002.7 hPa
Clouds: Overcast
Visibility: 10 miles , 16 km
Cloud details: Partly cloudy 2400 ft
Mostly cloudy 7000 ft
Overcast 8000 ft
2022/05/19 12:55 KDRM 191255Z AUTO 26005KT 10SM SCT024 BKN070 OVC080 11/09 A2961 RMK AO2 T01110088
KPZQ - Rogers City, Michigan, USA
Distance from Lake Huron Weather: SE 31mi
Updated: 05/19/2022 8:55am
Mostly cloudy
Mostly cloudy
 Wind from WSW
Wind: WSW 8 mph , 13 km/h
Temperature: 54°F , 12°C
Dew Point: 48°F , 9°C
Humidity: 82%
Barometer: 29.63 inHg , 1003.4 hPa
Clouds: Mostly cloudy
Visibility: 10 miles , 16 km
Cloud details: Partly cloudy 7500 ft
Mostly cloudy 9500 ft
2022/05/19 12:55 KPZQ 191255Z AUTO 24007KT 10SM SCT075 BKN095 12/09 A2963 RMK AO2 T01200087
 
CYAM - Sault Ste Marie, Ontario, Canada
Distance from Lake Huron Weather: N 56mi
Updated: 05/19/2022 8:00am
Mostly cloudy
Mostly cloudy
 Wind from SSW
Wind: SSW 6 mph , 9 km/h
Temperature: 48°F , 9°C
Wind Chill: 45°F , 7°C
Dew Point: 48°F , 9°C
Humidity: 100%
Barometer: 29.58 inHg , 1001.7 hPa
Clouds: Mostly cloudy
Visibility: 20 miles , 32 km
Cloud details: Few Clouds 600 ft
Mostly cloudy 1200 ft
2022/05/19 12:00 CYAM 191200Z 21005KT 20SM FEW006 BKN012 09/09 A2958 RMK CF1CU6 CIG VRB 9 - 15 SLP021
KANJ - Sault Ste Marie, Michigan, USA
Distance from Lake Huron Weather: N 56mi
Updated: 05/19/2022 8:55am
Overcast
Overcast
 Wind from W
Wind: W 7 mph , 11 km/h
Temperature: 52°F , 11°C
Dew Point: 46°F , 8°C
Humidity: 82%
Barometer: 29.58 inHg , 1001.7 hPa
Clouds: Overcast
Visibility: 10 miles , 16 km
Cloud details: Overcast 1200 ft
2022/05/19 12:55 KANJ 191255Z AUTO 27006KT 10SM OVC012 11/08 A2958 RMK AO2 SLP018 T01060078
 
KGLR - Gaylord, Michigan, USA
Distance from Lake Huron Weather: SSW 48mi
Updated: 05/19/2022 8:53am
Mostly cloudy
Mostly cloudy
 Wind from WSW
Wind: WSW 12 mph , 19 km/h
Temperature: 55°F , 13°C
Dew Point: 45°F , 7°C
Humidity: 67%
Barometer: 29.64 inHg , 1003.7 hPa
Clouds: Mostly cloudy
Visibility: 10 miles , 16 km
Cloud details: Few Clouds 1800 ft
Partly cloudy 7500 ft
Mostly cloudy 9000 ft
2022/05/19 12:53 KGLR 191253Z AUTO 25010KT 10SM FEW018 SCT075 BKN090 13/07 A2964 RMK AO2 SLP036 T01330072
KPLN - Pellston, Michigan, USA
Distance from Lake Huron Weather: WSW 24mi
Updated: 05/19/2022 8:54am
Overcast
Overcast
 Wind from W
Wind: W 12 mph , 19 km/h, Gust: 17 mph , 28 km/h
Temperature: 54°F , 12°C
Dew Point: 48°F , 9°C
Humidity: 82%
Barometer: 29.62 inHg , 1003 hPa
Clouds: Overcast
Visibility: 10 miles , 16 km
Cloud details: Overcast 1300 ft
2022/05/19 12:54 KPLN 191254Z AUTO 26010G15KT 10SM OVC013 12/09 A2962 RMK AO2 SLP032 T01220089